Time;durP1;ratioP1;P1;durP2;ratioP2;P2;SDS_P1;SDS_P2;PMS_P1;PMS_P2;Temp;Humidity;BMP_temperature;BMP_pressure;BME280_temperature;BME280_humidity;BME280_pressure;Samples;Min_cycle;Max_cycle;Signal;HPM_P1;HPM_P2
2022/04/06 00:01:45;;;;;;;11.45;5.55;;;;;;;12.47;68.36;100317.75;10561046;28;20487;-84
2022/04/06 00:06:47;;;;;;;5.35;2.83;;;;;;;12.57;67.91;100314.38;10544390;28;20043;-83
2022/04/06 00:11:51;;;;;;;10.13;2.75;;;;;;;12.48;67.76;100310.00;10543654;28;20487;-85
2022/04/06 00:16:54;;;;;;;16.83;6.85;;;;;;;12.31;67.99;100302.09;10578551;28;20059;-85
2022/04/06 00:21:55;;;;;;;9.75;4.50;;;;;;;12.31;67.24;100299.53;10559338;28;20056;-84
2022/04/06 00:26:57;;;;;;;10.88;3.63;;;;;;;12.62;66.73;100286.84;10543026;28;20079;-84
2022/04/06 00:31:59;;;;;;;8.85;2.92;;;;;;;12.68;66.45;100286.03;10577548;28;20046;-84
2022/04/06 00:37:00;;;;;;;11.00;4.15;;;;;;;12.52;66.85;100282.47;10559104;28;20089;-84
2022/04/06 00:42:03;;;;;;;8.75;3.92;;;;;;;12.50;66.72;100276.41;10541694;28;20050;-85
2022/04/06 00:47:06;;;;;;;6.97;3.28;;;;;;;12.42;65.92;100278.06;10558700;28;20052;-85
2022/04/06 00:52:08;;;;;;;5.35;1.92;;;;;;;12.68;65.32;100276.56;10558196;28;20039;-86
2022/04/06 00:57:10;;;;;;;9.43;5.28;;;;;;;12.54;65.81;100273.00;10558823;28;20079;-84
2022/04/06 01:02:11;;;;;;;8.63;3.55;;;;;;;12.34;66.28;100270.25;10542032;28;20116;-84
2022/04/06 01:07:14;;;;;;;11.38;3.15;;;;;;;12.40;65.99;100279.78;10558611;28;20134;-83
2022/04/06 01:12:16;;;;;;;4.72;2.22;;;;;;;12.45;66.13;100270.34;10557837;28;20067;-84
2022/04/06 01:17:18;;;;;;;11.65;3.90;;;;;;;12.38;66.71;100269.44;10558021;28;20067;-85
2022/04/06 01:22:20;;;;;;;10.30;4.03;;;;;;;12.14;67.01;100268.34;10575472;28;20444;-84
2022/04/06 01:27:22;;;;;;;8.55;3.80;;;;;;;12.36;66.08;100251.34;10575099;28;20039;-85
2022/04/06 01:32:26;;;;;;;10.05;4.18;;;;;;;12.21;66.56;100257.22;10557548;28;20047;-85
2022/04/06 01:37:28;;;;;;;10.55;4.43;;;;;;;12.10;66.84;100253.69;10557190;28;20086;-87
2022/04/06 01:42:31;;;;;;;5.57;2.15;;;;;;;12.34;66.64;100245.28;10539995;28;20498;-83
2022/04/06 01:47:33;;;;;;;7.82;3.33;;;;;;;12.31;66.70;100247.88;10557476;28;20047;-84
2022/04/06 01:52:35;;;;;;;14.68;4.57;;;;;;;12.24;66.54;100238.34;10556895;28;20031;-84
2022/04/06 01:57:37;;;;;;;2.70;1.65;;;;;;;12.31;66.59;100237.53;10557473;28;20059;-84
2022/04/06 02:02:40;;;;;;;5.25;3.38;;;;;;;12.07;66.88;100233.00;10556308;28;20131;-84
2022/04/06 02:07:43;;;;;;;7.00;3.00;;;;;;;12.44;66.52;100225.53;10557197;28;20063;-83
2022/04/06 02:12:45;;;;;;;19.40;7.90;;;;;;;12.17;66.74;100236.56;10556423;28;20113;-83
2022/04/06 02:17:48;;;;;;;10.90;4.38;;;;;;;12.27;66.73;100225.44;10556551;28;20039;-84
2022/04/06 02:22:50;;;;;;;12.43;3.67;;;;;;;12.14;66.61;100232.19;10540076;28;20588;-85
2022/04/06 02:27:53;;;;;;;30.48;5.68;;;;;;;12.15;66.77;100222.75;10575263;28;20100;-83
2022/04/06 02:32:55;;;;;;;9.60;3.47;;;;;;;12.32;66.46;100218.56;10556635;28;20071;-83
2022/04/06 02:37:57;;;;;;;7.88;4.43;;;;;;;11.90;67.18;100223.38;10544922;28;20417;-85
2022/04/06 02:42:58;;;;;;;4.13;2.28;;;;;;;12.15;66.38;100215.00;10563356;28;20043;-86
2022/04/06 02:48:00;;;;;;;6.35;3.05;;;;;;;12.05;66.72;100207.19;10532906;28;20052;-88
2022/04/06 02:53:01;;;;;;;6.47;2.22;;;;;;;12.18;66.04;100203.00;10581813;28;20048;-85
2022/04/06 02:58:04;;;;;;;7.45;2.85;;;;;;;12.13;66.66;100203.78;10564173;28;20036;-84
2022/04/06 03:03:06;;;;;;;9.50;3.38;;;;;;;12.02;66.01;100195.97;10546210;28;20048;-83
2022/04/06 03:08:08;;;;;;;8.63;4.03;;;;;;;11.89;66.51;100201.00;10562254;28;20040;-86
2022/04/06 03:13:09;;;;;;;10.50;3.60;;;;;;;11.89;66.28;100200.09;10580981;28;20043;-86
2022/04/06 03:18:11;;;;;;;5.80;2.60;;;;;;;11.93;65.96;100194.13;10545186;28;20112;-86
2022/04/06 03:23:15;;;;;;;5.05;1.52;;;;;;;12.00;65.71;100183.03;10562240;28;20445;-85
2022/04/06 03:28:16;;;;;;;11.23;2.58;;;;;;;11.96;65.88;100175.22;10562239;28;20075;-85
2022/04/06 03:33:18;;;;;;;6.30;2.30;;;;;;;12.01;65.49;100179.63;10545144;28;20051;-85
2022/04/06 03:38:19;;;;;;;9.45;3.33;;;;;;;11.73;65.80;100174.16;10562140;28;20091;-86
2022/04/06 03:43:22;;;;;;;3.30;1.70;;;;;;;11.93;65.28;100165.75;10560443;28;20097;-85
2022/04/06 03:48:24;;;;;;;8.82;3.13;;;;;;;11.66;65.07;100154.31;10561113;28;20055;-87
2022/04/06 03:53:26;;;;;;;17.15;3.75;;;;;;;11.65;65.21;100151.72;10543868;28;20402;-86
2022/04/06 03:58:29;;;;;;;7.47;2.80;;;;;;;11.62;65.36;100149.97;10561418;28;20151;-86
2022/04/06 04:03:30;;;;;;;13.77;3.45;;;;;;;11.65;64.85;100150.03;10543941;28;20043;-86
2022/04/06 04:08:32;;;;;;;6.03;2.95;;;;;;;11.56;64.51;100160.25;10560341;28;20086;-86
2022/04/06 04:13:34;;;;;;;5.32;3.22;;;;;;;11.65;64.05;100154.31;10560231;28;20079;-86
2022/04/06 04:18:39;;;;;;;10.50;3.55;;;;;;;11.60;64.01;100159.41;10561325;28;20101;-81
2022/04/06 04:23:43;;;;;;;13.20;3.40;;;;;;;11.61;64.46;100148.25;10545214;28;20513;-83
2022/04/06 04:28:45;;;;;;;8.90;3.17;;;;;;;11.49;64.21;100153.28;10586085;28;20493;-82
2022/04/06 04:33:47;;;;;;;5.03;1.48;;;;;;;11.67;63.98;100150.03;10569066;28;20505;-81
2022/04/06 04:38:49;;;;;;;6.65;1.98;;;;;;;11.61;64.14;100150.81;10561061;28;20047;-86
2022/04/06 04:43:50;;;;;;;19.45;2.72;;;;;;;11.53;63.83;100161.09;10541003;28;20494;-85
2022/04/06 04:48:53;;;;;;;4.55;1.92;;;;;;;11.51;63.37;100155.03;10543178;28;20109;-83
2022/04/06 04:53:57;;;;;;;8.93;2.95;;;;;;;11.51;63.50;100141.25;10577088;28;20035;-85
2022/04/06 04:58:59;;;;;;;5.13;1.58;;;;;;;11.61;63.44;100142.25;10558327;28;20062;-83
2022/04/06 05:04:01;;;;;;;4.82;1.52;;;;;;;11.66;62.86;100146.56;10540403;28;20541;-84
2022/04/06 05:09:03;;;;;;;9.50;2.10;;;;;;;11.77;62.62;100140.66;10559638;28;20055;-84
2022/04/06 05:14:05;;;;;;;1.52;0.50;;;;;;;11.88;62.61;100128.69;10515749;28;20071;-85
2022/04/06 05:19:10;;;;;;;3.13;0.95;;;;;;;11.67;62.87;100137.97;10557559;28;20512;-83
2022/04/06 05:24:12;;;;;;;1.90;0.93;;;;;;;11.60;62.66;100120.72;10576657;28;20059;-83
2022/04/06 05:29:14;;;;;;;3.33;1.20;;;;;;;11.20;63.29;100117.75;10576149;28;20046;-83
2022/04/06 05:34:16;;;;;;;7.35;2.47;;;;;;;11.05;63.47;100114.16;10540074;28;20505;-82
2022/04/06 05:39:18;;;;;;;8.90;2.20;;;;;;;11.00;63.65;100109.78;10540676;28;20059;-82
2022/04/06 05:44:19;;;;;;;3.55;1.75;;;;;;;11.59;61.90;100113.81;10539637;28;20040;-82
2022/04/06 05:49:21;;;;;;;3.70;1.50;;;;;;;11.45;62.24;100107.66;10540730;28;20132;-82
2022/04/06 05:54:22;;;;;;;2.42;1.13;;;;;;;11.68;61.87;100108.75;10556593;28;20048;-83
2022/04/06 05:59:24;;;;;;;7.90;1.92;;;;;;;11.46;61.74;100109.41;10575146;28;20069;-81
2022/04/06 06:04:26;;;;;;;2.40;1.17;;;;;;;11.45;62.03;100105.09;10574343;28;20040;-83
2022/04/06 06:09:27;;;;;;;5.60;2.22;;;;;;;11.39;62.05;100096.44;10541764;28;20150;-84
2022/04/06 06:14:29;;;;;;;2.90;1.20;;;;;;;11.48;62.23;100107.72;10582477;28;20034;-81
2022/04/06 06:19:31;;;;;;;6.00;1.67;;;;;;;11.68;62.16;100103.59;10564929;28;20071;-81
2022/04/06 06:24:32;;;;;;;3.55;1.83;;;;;;;11.43;62.02;100102.50;10564386;28;20171;-83
2022/04/06 06:29:34;;;;;;;5.78;2.45;;;;;;;11.42;62.98;100096.50;10584017;28;20040;-83
2022/04/06 06:34:35;;;;;;;6.70;1.63;;;;;;;11.79;62.04;100090.78;10582395;28;20461;-82
2022/04/06 06:39:37;;;;;;;5.85;2.70;;;;;;;11.86;62.39;100094.28;10581797;28;20071;-83
2022/04/06 06:44:39;;;;;;;4.60;1.73;;;;;;;11.98;61.94;100094.38;10562898;28;20032;-82
2022/04/06 06:49:46;;;;;;;6.90;1.95;;;;;;;11.95;61.76;100086.56;10567751;28;20097;-82
2022/04/06 06:54:48;;;;;;;12.85;3.85;;;;;;;11.74;62.04;100087.31;10560400;28;20092;-82
2022/04/06 06:59:49;;;;;;;6.50;2.17;;;;;;;12.00;61.59;100096.97;10583612;28;20220;-83
2022/04/06 07:04:51;;;;;;;8.52;2.90;;;;;;;11.95;61.09;100091.75;10564242;28;20115;-83
2022/04/06 07:09:52;;;;;;;12.35;3.67;;;;;;;11.93;61.90;100088.31;10563533;28;20554;-84
2022/04/06 07:14:54;;;;;;;5.93;1.95;;;;;;;11.99;61.12;100087.53;10557217;28;20055;-83
2022/04/06 07:19:56;;;;;;;4.80;2.45;;;;;;;11.69;61.36;100074.34;10546423;28;20048;-81
2022/04/06 07:24:57;;;;;;;7.00;2.40;;;;;;;11.88;61.49;100074.47;10562957;28;20490;-81
2022/04/06 07:29:59;;;;;;;7.85;2.70;;;;;;;11.86;61.21;100073.63;10563225;28;20054;-82
2022/04/06 07:35:04;;;;;;;6.22;2.40;;;;;;;12.15;60.69;100067.81;10546479;28;20044;-83
2022/04/06 07:40:12;;;;;;;2.75;1.10;;;;;;;11.80;60.25;100060.69;10564089;28;20044;-84
2022/04/06 07:45:18;;;;;;;7.80;2.75;;;;;;;11.95;59.69;100060.75;10563106;28;20448;-83
2022/04/06 07:50:21;;;;;;;6.93;5.38;;;;;;;12.53;58.94;100059.41;10561847;28;20135;-82
2022/04/06 07:55:23;;;;;;;3.95;0.90;;;;;;;12.36;58.19;100052.44;10563173;28;20051;-83
2022/04/06 08:00:25;;;;;;;9.10;2.33;;;;;;;12.21;58.22;100057.53;10563164;28;20056;-81
2022/04/06 08:05:29;;;;;;;4.40;1.48;;;;;;;12.09;57.52;100053.16;10561374;28;20138;-82
2022/04/06 08:10:30;;;;;;;4.50;1.55;;;;;;;12.36;56.54;100055.03;10596582;27;20042;-82
2022/04/06 08:15:36;;;;;;;5.13;1.65;;;;;;;12.38;56.51;100039.53;10563470;28;20048;-82
2022/04/06 08:20:39;;;;;;;2.38;1.13;;;;;;;12.40;56.17;100042.13;10562297;28;20040;-83
2022/04/06 08:26:29;;;;;;;3.90;1.33;;;;;;;12.23;55.26;100040.34;10561820;28;20042;-82
2022/04/06 08:31:24;;;;;;;3.35;1.13;;;;;;;12.67;54.84;100037.06;10566184;28;20070;-81
2022/04/06 08:36:27;;;;;;;1.65;0.55;;;;;;;12.92;54.75;100025.94;10577523;28;20410;-82
2022/04/06 08:41:30;;;;;;;1.00;0.70;;;;;;;13.16;54.40;100019.94;10560104;28;20097;-82
2022/04/06 08:46:36;;;;;;;5.22;1.55;;;;;;;12.63;54.80;100019.81;10561168;28;20135;-82
2022/04/06 08:51:40;;;;;;;1.15;0.68;;;;;;;13.10;55.16;100027.69;10563948;28;20124;-82
2022/04/06 08:56:42;;;;;;;2.92;1.15;;;;;;;12.85;54.61;100030.22;10561687;28;20142;-83
2022/04/06 09:01:43;;;;;;;3.40;1.55;;;;;;;12.58;55.03;100042.19;10543972;28;20044;-84
2022/04/06 09:06:46;;;;;;;6.15;1.73;;;;;;;12.86;54.72;100037.09;10559930;28;20495;-84
2022/04/06 09:11:48;;;;;;;4.72;1.83;;;;;;;12.88;55.10;100031.97;10559920;28;20065;-83
2022/04/06 09:17:01;;;;;;;3.50;2.05;;;;;;;12.72;56.70;100018.13;10559827;28;20096;-83
2022/04/06 09:22:06;;;;;;;6.53;2.67;;;;;;;12.35;58.21;100037.78;10559133;28;20131;-82
2022/04/06 09:27:08;;;;;;;7.72;3.60;;;;;;;12.32;59.28;100035.19;10559950;28;20051;-83
2022/04/06 09:32:10;;;;;;;6.15;2.08;;;;;;;12.70;58.93;100036.22;10559774;28;20071;-83
2022/04/06 09:37:32;;;;;;;6.20;2.47;;;;;;;12.42;59.83;100040.41;10563441;28;20481;-81
2022/04/06 09:42:34;;;;;;;5.63;3.55;;;;;;;11.89;61.94;100040.97;10557414;28;20071;-82
2022/04/06 09:47:38;;;;;;;4.20;2.75;;;;;;;12.20;62.11;100030.84;10566645;28;20143;-82
2022/04/06 09:52:42;;;;;;;4.63;3.55;;;;;;;12.01;62.06;100035.06;10549753;28;20048;-84
2022/04/06 09:57:47;;;;;;;7.63;3.92;;;;;;;11.98;62.56;100040.19;10584276;28;20546;-82
2022/04/06 10:03:06;;;;;;;7.43;3.42;;;;;;;11.88;64.75;100038.34;10567119;28;20085;-82
2022/04/06 10:08:10;;;;;;;4.38;2.83;;;;;;;11.52;67.10;100037.22;10565114;28;20555;-81
2022/04/06 10:13:14;;;;;;;5.70;2.88;;;;;;;11.43;67.11;100032.88;10551878;28;20044;-83
2022/04/06 10:18:37;;;;;;;4.80;2.92;;;;;;;11.50;68.92;100026.06;10552386;28;20055;-83
2022/04/06 10:23:38;;;;;;;8.43;3.58;;;;;;;11.34;68.90;100022.47;10567043;28;20071;-84
2022/04/06 10:28:51;;;;;;;5.25;3.22;;;;;;;11.08;69.71;100031.69;10568750;28;20559;-82
2022/04/06 10:34:19;;;;;;;2.78;1.63;;;;;;;11.68;69.12;100021.03;10567273;28;20039;-84
2022/04/06 10:39:22;;;;;;;4.03;2.83;;;;;;;11.06;68.74;100014.50;10561770;28;20054;-83
2022/04/06 10:44:37;;;;;;;7.35;3.28;;;;;;;11.08;69.34;100008.50;10548905;28;20131;-82
2022/04/06 10:49:40;;;;;;;6.05;2.85;;;;;;;11.16;69.58;100005.13;10566135;28;20051;-84
2022/04/06 10:54:42;;;;;;;4.82;3.17;;;;;;;11.34;70.20;99989.81;10565827;28;20046;-84
2022/04/06 11:00:16;;;;;;;6.32;3.28;;;;;;;11.42;68.83;99984.72;10565567;28;20051;-83
2022/04/06 11:05:44;;;;;;;3.33;1.90;;;;;;;11.67;68.72;99988.31;10583555;28;20035;-82
2022/04/06 11:10:46;;;;;;;5.75;3.72;;;;;;;11.52;68.62;99983.94;10537165;28;20097;-81
2022/04/06 11:15:53;;;;;;;3.03;2.10;;;;;;;11.96;67.54;99977.31;10578736;28;20394;-81
2022/04/06 11:21:01;;;;;;;3.75;1.92;;;;;;;11.61;68.00;99977.13;10581597;28;20078;-82
2022/04/06 11:26:04;;;;;;;4.20;2.40;;;;;;;12.00;67.39;99976.53;10563550;28;20051;-81
2022/04/06 11:31:06;;;;;;;2.78;2.20;;;;;;;11.60;68.26;99968.50;10563455;28;20044;-81
2022/04/06 11:36:16;;;;;;;3.42;2.60;;;;;;;11.46;68.79;99972.69;10563682;28;20407;-85
2022/04/06 11:41:19;;;;;;;10.13;4.55;;;;;;;11.35;69.41;99970.94;10564369;28;20491;-82
2022/04/06 11:46:24;;;;;;;5.65;3.58;;;;;;;11.72;68.88;99976.34;10563311;28;20044;-81
2022/04/06 11:51:26;;;;;;;5.50;2.38;;;;;;;11.70;68.72;99961.69;10562376;28;20118;-82
2022/04/06 11:56:29;;;;;;;4.28;3.13;;;;;;;11.62;68.65;99963.34;10555594;28;20040;-82
2022/04/06 12:01:40;;;;;;;5.38;3.42;;;;;;;12.01;70.50;99947.28;10562929;28;20068;-82
2022/04/06 12:06:47;;;;;;;10.07;2.70;;;;;;;12.33;64.51;99943.94;10573348;28;20093;-82
2022/04/06 12:11:51;;;;;;;4.28;2.00;;;;;;;12.65;63.71;99940.59;10546290;28;20086;-82
2022/04/06 12:16:53;;;;;;;3.15;0.80;;;;;;;13.18;62.77;99945.81;10563376;28;20047;-82
2022/04/06 12:22:05;;;;;;;5.38;2.63;;;;;;;12.26;64.26;99931.84;10561875;28;20067;-81
2022/04/06 12:27:07;;;;;;;3.35;2.55;;;;;;;12.68;63.26;99925.09;10582976;28;20081;-81
2022/04/06 12:32:09;;;;;;;2.35;1.98;;;;;;;12.69;65.09;99913.91;10563731;28;20048;-82
2022/04/06 12:42:41;;;;;;;6.38;2.65;;;;;;;12.67;64.08;99902.69;10561002;28;20636;-83
2022/04/06 12:48:15;;;;;;;2.55;1.58;;;;;;;12.61;63.95;99887.19;10552186;28;20126;-84
2022/04/06 12:53:46;;;;;;;4.13;2.70;;;;;;;12.98;63.61;99892.38;10572403;28;20043;-81
2022/04/06 12:59:11;;;;;;;3.83;2.22;;;;;;;12.41;64.64;99870.78;10560406;28;20096;-84
2022/04/06 13:04:13;;;;;;;2.85;1.27;;;;;;;13.10;63.69;99875.13;10578402;28;20135;-85
2022/04/06 13:09:15;;;;;;;3.10;1.65;;;;;;;12.86;62.99;99853.56;10566431;28;20101;-81
2022/04/06 13:14:26;;;;;;;4.88;2.15;;;;;;;13.45;61.85;99850.94;10536177;28;20134;-83
2022/04/06 13:19:27;;;;;;;3.22;1.90;;;;;;;13.23;62.33;99829.41;10561514;27;20070;-83
2022/04/06 13:24:29;;;;;;;4.55;2.42;;;;;;;12.89;62.26;99835.50;10557524;28;20131;-83
2022/04/06 13:29:32;;;;;;;3.92;2.65;;;;;;;13.01;61.56;99817.38;10544984;28;20409;-82
2022/04/06 13:34:35;;;;;;;4.30;3.08;;;;;;;13.08;62.50;99814.78;10553288;28;20531;-81
2022/04/06 13:39:37;;;;;;;1.27;0.77;;;;;;;13.69;61.93;99802.53;10555834;28;20062;-84
2022/04/06 13:44:44;;;;;;;7.95;2.75;;;;;;;13.24;61.05;99795.78;10556236;28;20043;-80
2022/04/06 13:49:45;;;;;;;4.43;3.42;;;;;;;13.08;61.61;99789.78;10543626;28;20048;-84
2022/04/06 13:54:47;;;;;;;3.85;2.72;;;;;;;13.19;61.48;99784.59;10543505;28;20048;-81
2022/04/06 13:59:49;;;;;;;3.17;1.98;;;;;;;13.05;61.68;99774.28;10543002;28;20048;-81
2022/04/06 14:04:53;;;;;;;5.45;3.67;;;;;;;13.64;60.66;99759.44;10543539;28;20039;-81
2022/04/06 14:09:56;;;;;;;5.82;3.35;;;;;;;13.72;61.17;99750.78;10559370;28;20090;-82
2022/04/06 14:14:57;;;;;;;3.88;2.22;;;;;;;13.52;61.21;99749.13;10559198;28;20051;-80
2022/04/06 14:19:59;;;;;;;3.50;1.75;;;;;;;13.70;60.02;99736.97;10552223;28;20135;-81
2022/04/06 14:25:16;;;;;;;3.75;2.10;;;;;;;13.61;60.27;99728.38;10543413;28;20048;-81
2022/04/06 14:30:21;;;;;;;4.75;2.97;;;;;;;13.64;60.45;99715.44;10528358;28;20134;-81
2022/04/06 14:35:23;;;;;;;3.97;2.28;;;;;;;13.64;60.30;99715.44;10566034;28;20047;-80
2022/04/06 14:40:26;;;;;;;6.35;3.10;;;;;;;13.60;60.18;99716.31;10557469;28;20093;-80
2022/04/06 14:45:27;;;;;;;5.45;3.03;;;;;;;13.43;60.44;99702.63;10557608;28;20059;-81
2022/04/06 14:50:31;;;;;;;4.95;2.67;;;;;;;13.60;59.57;99700.78;10558862;28;20394;-81
2022/04/06 14:55:34;;;;;;;5.68;2.42;;;;;;;13.77;58.83;99697.25;10564988;28;20039;-82
2022/04/06 15:00:41;;;;;;;6.63;2.90;;;;;;;13.64;58.68;99696.44;10546631;28;20104;-81
2022/04/06 15:05:42;;;;;;;5.18;3.38;;;;;;;13.55;59.34;99691.34;10562279;28;20105;-81
2022/04/06 15:10:44;;;;;;;5.70;3.10;;;;;;;13.33;59.13;99687.09;10559998;28;20077;-81
2022/04/06 15:15:46;;;;;;;4.07;2.15;;;;;;;13.79;57.61;99685.16;10562098;27;20550;-82
2022/04/06 15:20:47;;;;;;;4.78;2.45;;;;;;;13.75;58.40;99683.44;10537707;28;20074;-82
2022/04/06 15:25:50;;;;;;;6.43;3.92;;;;;;;13.70;57.88;99672.25;10583484;28;20036;-83
2022/04/06 15:30:52;;;;;;;5.75;2.95;;;;;;;13.72;57.35;99675.72;10566424;28;20054;-82
2022/04/06 15:41:13;;;;;;;7.57;2.33;;;;;;;14.46;55.67;99677.69;10583475;28;20052;-80
2022/04/06 15:46:15;;;;;;;1.60;1.02;;;;;;;14.09;58.56;99675.44;10527827;28;20076;-84
2022/04/06 15:51:17;;;;;;;2.25;1.40;;;;;;;13.06;62.19;99682.06;10529228;28;20491;-84
2022/04/06 15:56:19;;;;;;;7.15;3.35;;;;;;;12.18;65.10;99683.97;10550751;28;20071;-84
2022/04/06 16:01:20;;;;;;;4.32;2.95;;;;;;;12.30;66.15;99680.53;10554734;28;20577;-83
2022/04/06 16:06:22;;;;;;;3.42;2.25;;;;;;;12.43;66.15;99681.38;10578473;28;20088;-85
2022/04/06 16:11:25;;;;;;;3.55;1.80;;;;;;;12.31;66.93;99687.41;10535738;28;20052;-86
2022/04/06 16:16:27;;;;;;;2.83;1.58;;;;;;;12.41;67.49;99682.22;10536353;28;20559;-85
2022/04/06 16:21:29;;;;;;;2.78;1.77;;;;;;;12.27;68.13;99677.94;10569164;28;20069;-83
2022/04/06 16:26:30;;;;;;;2.60;1.63;;;;;;;12.27;69.01;99667.59;10558648;28;20071;-86
2022/04/06 16:31:33;;;;;;;4.00;2.45;;;;;;;11.99;69.52;99665.03;10574222;28;20570;-87
2022/04/06 16:36:37;;;;;;;4.43;2.55;;;;;;;11.69;70.87;99651.22;10576567;28;20038;-87
2022/04/06 16:41:41;;;;;;;4.30;3.03;;;;;;;11.93;71.62;99633.16;10553471;28;20043;-84
2022/04/06 16:46:46;;;;;;;2.30;1.38;;;;;;;11.81;71.28;99623.69;10561162;28;20475;-84
2022/04/06 16:57:09;;;;;;;1.27;0.90;;;;;;;12.06;71.18;99604.78;10518132;28;20067;-85
2022/04/06 17:02:10;;;;;;;1.40;0.73;;;;;;;11.99;70.45;99595.34;10517105;28;20079;-82
2022/04/06 17:07:13;;;;;;;2.47;1.48;;;;;;;11.59;70.49;99590.16;10542853;28;20074;-83
2022/04/06 17:12:16;;;;;;;5.32;2.95;;;;;;;12.25;68.29;99586.69;10575945;28;20498;-82
2022/04/06 17:17:17;;;;;;;5.70;3.30;;;;;;;11.98;68.17;99580.72;10557565;28;20082;-82
2022/04/06 17:22:20;;;;;;;6.38;3.78;;;;;;;11.73;69.26;99580.69;10558462;28;20050;-82
2022/04/06 17:27:22;;;;;;;6.18;2.70;;;;;;;11.94;69.58;99571.22;10558688;28;20391;-83
2022/04/06 17:32:24;;;;;;;3.55;2.05;;;;;;;11.89;69.63;99541.97;10576542;28;20439;-82
2022/04/06 17:37:28;;;;;;;5.25;3.53;;;;;;;11.65;70.71;99538.56;10559385;28;20040;-83
2022/04/06 17:42:31;;;;;;;4.13;2.35;;;;;;;11.40;70.32;99545.41;10557793;28;20047;-82
2022/04/06 17:47:33;;;;;;;4.55;2.65;;;;;;;11.80;69.98;99519.63;10567872;28;20036;-82
2022/04/06 17:52:35;;;;;;;3.13;1.88;;;;;;;11.97;69.06;99532.53;10558613;28;20051;-83
2022/04/06 17:57:43;;;;;;;3.15;2.30;;;;;;;11.85;69.94;99517.88;10574206;28;20075;-83
2022/04/06 18:02:48;;;;;;;4.90;3.80;;;;;;;11.67;69.73;99513.63;10547758;28;20075;-82
2022/04/06 18:07:50;;;;;;;3.55;2.67;;;;;;;11.64;69.46;99530.81;10565051;28;20047;-82
2022/04/06 18:18:16;;;;;;;2.17;1.55;;;;;;;11.62;69.65;99510.19;10585116;28;20096;-81
2022/04/06 18:23:19;;;;;;;4.70;2.97;;;;;;;11.27;70.86;99511.06;10524720;28;20425;-86
2022/04/06 18:28:21;;;;;;;1.38;0.93;;;;;;;11.82;70.03;99509.28;10541824;28;20056;-83
2022/04/06 18:33:23;;;;;;;5.05;3.78;;;;;;;11.22;71.33;99505.00;10566634;28;20074;-84
2022/04/06 18:38:26;;;;;;;6.47;4.03;;;;;;;11.29;71.10;99506.75;10561876;28;20055;-83
2022/04/06 18:43:28;;;;;;;4.72;3.03;;;;;;;11.30;70.36;99487.84;10558405;28;20036;-83
2022/04/06 18:48:32;;;;;;;6.78;3.92;;;;;;;11.15;71.63;99495.56;10555656;28;20040;-84
2022/04/06 18:53:35;;;;;;;4.82;3.17;;;;;;;11.46;70.72;99493.00;10548393;28;20088;-84
2022/04/06 18:58:40;;;;;;;5.88;2.78;;;;;;;11.56;69.36;99502.47;10579847;28;20052;-86
2022/04/06 19:03:41;;;;;;;4.75;3.55;;;;;;;11.45;69.83;99496.44;10576669;28;20047;-84
2022/04/06 19:08:43;;;;;;;4.82;2.55;;;;;;;11.67;69.19;99477.50;10549567;28;20510;-84
2022/04/06 19:13:46;;;;;;;4.25;2.92;;;;;;;11.06;70.33;99462.91;10548408;28;20055;-80
2022/04/06 19:18:47;;;;;;;5.47;3.45;;;;;;;11.45;70.71;99475.81;10548176;28;20048;-83
2022/04/06 19:23:49;;;;;;;5.07;3.30;;;;;;;11.02;71.01;99476.66;10544852;28;20055;-82
2022/04/06 19:28:51;;;;;;;4.57;3.30;;;;;;;11.43;70.37;99480.97;10563267;28;20048;-82
2022/04/06 19:33:52;;;;;;;6.90;3.85;;;;;;;11.07;71.71;99464.63;10564310;28;20035;-83
2022/04/06 19:39:03;;;;;;;3.75;2.45;;;;;;;11.41;71.28;99465.50;10542278;28;20048;-86
2022/04/06 19:44:04;;;;;;;3.30;2.33;;;;;;;11.48;71.67;99466.34;10547914;28;20063;-84
2022/04/06 19:49:06;;;;;;;6.35;4.20;;;;;;;11.37;71.48;99463.78;10564810;28;20056;-85
2022/04/06 19:54:08;;;;;;;7.35;4.25;;;;;;;11.29;72.65;99464.66;10545670;28;20134;-88
2022/04/06 19:59:10;;;;;;;5.55;3.40;;;;;;;11.42;72.23;99462.06;10580065;28;20048;-84
2022/04/06 20:04:13;;;;;;;4.60;3.22;;;;;;;11.37;72.01;99468.94;10557608;28;20125;-84
2022/04/06 20:09:18;;;;;;;3.72;2.45;;;;;;;11.83;70.43;99462.00;10559976;28;20248;-84
2022/04/06 20:14:19;;;;;;;2.80;1.85;;;;;;;11.79;69.76;99460.28;10557833;28;20098;-84
2022/04/06 20:19:21;;;;;;;3.53;2.25;;;;;;;12.06;69.05;99454.22;10541748;28;20048;-83
2022/04/06 20:24:23;;;;;;;4.22;2.83;;;;;;;11.92;68.90;99446.47;10558330;28;20135;-83
2022/04/06 20:29:27;;;;;;;4.95;3.03;;;;;;;11.79;69.34;99447.38;10540692;28;20071;-84
2022/04/06 20:34:30;;;;;;;3.42;1.83;;;;;;;11.75;68.62;99431.91;10541258;28;20167;-84
2022/04/06 20:39:32;;;;;;;4.50;2.53;;;;;;;11.76;68.99;99430.19;10557327;28;20146;-84
2022/04/06 20:44:34;;;;;;;2.17;1.58;;;;;;;12.05;68.71;99424.97;10546929;28;20470;-84
2022/04/06 20:49:36;;;;;;;5.90;2.85;;;;;;;11.65;68.98;99421.63;10536485;28;20051;-84
2022/04/06 20:54:39;;;;;;;2.25;1.50;;;;;;;11.88;68.60;99413.78;10553708;28;20051;-82
2022/04/06 20:59:41;;;;;;;4.70;1.83;;;;;;;12.11;68.27;99405.13;10557672;28;20071;-85
2022/04/06 21:04:43;;;;;;;2.25;1.70;;;;;;;11.97;68.55;99397.47;10556519;28;20111;-83
2022/04/06 21:09:44;;;;;;;4.15;2.53;;;;;;;11.78;68.91;99391.47;10539077;28;20054;-83
2022/04/06 21:14:46;;;;;;;2.72;1.77;;;;;;;11.81;68.42;99381.13;10554465;28;20444;-84
2022/04/06 21:19:49;;;;;;;5.95;2.17;;;;;;;11.79;68.38;99369.97;10561377;28;20071;-85
2022/04/06 21:24:51;;;;;;;1.98;1.10;;;;;;;11.82;68.28;99367.38;10553149;28;20553;-85
2022/04/06 21:29:52;;;;;;;4.57;3.03;;;;;;;11.49;68.65;99358.91;10565503;28;20138;-83
2022/04/06 21:34:57;;;;;;;4.22;2.28;;;;;;;11.59;68.09;99339.94;10573399;28;20035;-83
2022/04/06 21:39:58;;;;;;;4.30;3.03;;;;;;;11.49;68.27;99333.94;10532923;28;20047;-81
2022/04/06 21:45:00;;;;;;;6.72;3.00;;;;;;;12.00;66.77;99336.38;10554358;28;20047;-85
2022/04/06 21:50:02;;;;;;;7.95;2.40;;;;;;;12.09;66.53;99324.28;10542260;28;20075;-82
2022/04/06 21:55:07;;;;;;;4.82;2.70;;;;;;;12.00;66.24;99320.00;10544171;28;20047;-85
2022/04/06 22:00:29;;;;;;;3.90;2.47;;;;;;;12.00;66.65;99312.25;10544682;28;20075;-85
2022/04/06 22:05:31;;;;;;;3.05;1.95;;;;;;;12.09;66.42;99303.63;10554888;28;20138;-83
2022/04/06 22:10:33;;;;;;;3.22;2.17;;;;;;;12.06;66.39;99297.63;10560601;28;20111;-84
2022/04/06 22:15:37;;;;;;;4.85;2.50;;;;;;;11.84;66.61;99289.09;10578017;28;20040;-81
2022/04/06 22:20:39;;;;;;;4.85;2.78;;;;;;;12.22;66.16;99276.88;10559067;28;20149;-83
2022/04/06 22:25:42;;;;;;;3.88;2.35;;;;;;;11.93;66.06;99235.72;10560719;28;20052;-84
2022/04/06 22:30:45;;;;;;;5.18;2.60;;;;;;;12.01;66.45;99260.66;10560240;28;20545;-83
2022/04/06 22:35:47;;;;;;;3.25;2.25;;;;;;;12.10;66.00;99248.56;10560350;28;20039;-82
2022/04/06 22:40:49;;;;;;;5.03;2.85;;;;;;;12.12;66.24;99246.81;10557967;28;20137;-82
2022/04/06 22:45:50;;;;;;;4.47;3.15;;;;;;;11.99;66.10;99257.22;10574820;28;20478;-82
2022/04/06 22:50:54;;;;;;;2.72;1.45;;;;;;;12.21;65.54;99229.50;10555934;28;20050;-82
2022/04/06 22:55:55;;;;;;;3.83;2.83;;;;;;;12.24;65.34;99220.91;10547324;28;20112;-83
2022/04/06 23:00:58;;;;;;;2.42;1.40;;;;;;;12.29;65.56;99226.88;10547332;28;20040;-83
2022/04/06 23:06:00;;;;;;;3.88;2.40;;;;;;;12.08;66.25;99219.31;10563771;28;20049;-82
2022/04/06 23:11:02;;;;;;;3.53;2.47;;;;;;;12.22;66.40;99207.16;10562806;28;20052;-82
2022/04/06 23:16:04;;;;;;;3.10;1.77;;;;;;;12.56;65.41;99186.19;10559988;28;20484;-80
2022/04/06 23:21:06;;;;;;;5.05;3.03;;;;;;;12.15;66.64;99190.00;10547222;28;20581;-82
2022/04/06 23:26:08;;;;;;;3.58;2.58;;;;;;;12.20;66.21;99173.59;10563485;28;20221;-85
2022/04/06 23:31:10;;;;;;;4.55;3.00;;;;;;;12.18;66.18;99164.13;10581401;28;20062;-81
2022/04/06 23:36:12;;;;;;;3.90;3.05;;;;;;;12.20;66.03;99154.66;10562733;28;20059;-82
2022/04/06 23:41:14;;;;;;;2.63;1.98;;;;;;;12.26;65.70;99146.84;10545273;28;20452;-84
2022/04/06 23:46:36;;;;;;;3.05;1.95;;;;;;;12.43;65.33;99138.97;10548089;28;20071;-82